sensor_id;sensor_type;location;lat;lon;timestamp;P1;durP1;ratioP1;P2;durP2;ratioP2
67053;SDS011;53960;51.826;5.850;2023-04-10T00:02:16;13.10;;;5.67;;
67053;SDS011;53960;51.826;5.850;2023-04-10T00:04:42;12.50;;;6.23;;
67053;SDS011;53960;51.826;5.850;2023-04-10T00:07:07;11.60;;;5.60;;
67053;SDS011;53960;51.826;5.850;2023-04-10T00:09:32;13.80;;;6.70;;
67053;SDS011;53960;51.826;5.850;2023-04-10T00:11:58;12.82;;;6.00;;
67053;SDS011;53960;51.826;5.850;2023-04-10T00:14:23;13.20;;;6.03;;
67053;SDS011;53960;51.826;5.850;2023-04-10T00:16:49;12.20;;;6.03;;
67053;SDS011;53960;51.826;5.850;2023-04-10T00:19:15;12.23;;;5.63;;
67053;SDS011;53960;51.826;5.850;2023-04-10T00:21:41;12.40;;;5.97;;
67053;SDS011;53960;51.826;5.850;2023-04-10T00:24:06;12.83;;;5.67;;
67053;SDS011;53960;51.826;5.850;2023-04-10T00:26:32;12.55;;;6.13;;
67053;SDS011;53960;51.826;5.850;2023-04-10T00:28:57;11.20;;;5.80;;
67053;SDS011;53960;51.826;5.850;2023-04-10T00:31:23;13.30;;;6.00;;
67053;SDS011;53960;51.826;5.850;2023-04-10T00:33:48;11.97;;;6.00;;
67053;SDS011;53960;51.826;5.850;2023-04-10T00:36:13;12.87;;;6.03;;
67053;SDS011;53960;51.826;5.850;2023-04-10T00:38:39;12.82;;;5.93;;
67053;SDS011;53960;51.826;5.850;2023-04-10T00:41:05;12.80;;;6.00;;
67053;SDS011;53960;51.826;5.850;2023-04-10T00:43:31;11.33;;;5.87;;
67053;SDS011;53960;51.826;5.850;2023-04-10T00:45:56;12.43;;;6.17;;
67053;SDS011;53960;51.826;5.850;2023-04-10T00:48:21;12.53;;;5.87;;
67053;SDS011;53960;51.826;5.850;2023-04-10T00:50:47;12.68;;;6.47;;
67053;SDS011;53960;51.826;5.850;2023-04-10T00:53:12;11.70;;;5.70;;
67053;SDS011;53960;51.826;5.850;2023-04-10T00:55:37;12.67;;;6.00;;
67053;SDS011;53960;51.826;5.850;2023-04-10T00:58:03;11.53;;;5.57;;
67053;SDS011;53960;51.826;5.850;2023-04-10T01:00:28;12.07;;;6.33;;
67053;SDS011;53960;51.826;5.850;2023-04-10T01:02:54;12.13;;;5.75;;
67053;SDS011;53960;51.826;5.850;2023-04-10T01:05:20;11.97;;;6.10;;
67053;SDS011;53960;51.826;5.850;2023-04-10T01:13:15;12.88;;;5.72;;
67053;SDS011;53960;51.826;5.850;2023-04-10T01:18:33;12.43;;;5.80;;
67053;SDS011;53960;51.826;5.850;2023-04-10T01:21:06;12.07;;;5.97;;
67053;SDS011;53960;51.826;5.850;2023-04-10T01:29:25;12.40;;;5.47;;
67053;SDS011;53960;51.826;5.850;2023-04-10T01:31:58;12.90;;;5.97;;
67053;SDS011;53960;51.826;5.850;2023-04-10T01:34:32;12.40;;;5.57;;
67053;SDS011;53960;51.826;5.850;2023-04-10T01:37:03;12.85;;;6.07;;
67053;SDS011;53960;51.826;5.850;2023-04-10T01:39:30;11.98;;;5.63;;
67053;SDS011;53960;51.826;5.850;2023-04-10T01:42:01;12.05;;;6.05;;
67053;SDS011;53960;51.826;5.850;2023-04-10T01:44:28;12.30;;;5.77;;
67053;SDS011;53960;51.826;5.850;2023-04-10T01:46:55;12.25;;;6.03;;
67053;SDS011;53960;51.826;5.850;2023-04-10T01:49:25;12.27;;;6.47;;
67053;SDS011;53960;51.826;5.850;2023-04-10T01:51:52;11.20;;;5.55;;
67053;SDS011;53960;51.826;5.850;2023-04-10T01:54:22;12.13;;;5.45;;
67053;SDS011;53960;51.826;5.850;2023-04-10T01:56:50;11.57;;;5.50;;
67053;SDS011;53960;51.826;5.850;2023-04-10T01:59:15;12.13;;;5.60;;
67053;SDS011;53960;51.826;5.850;2023-04-10T02:01:40;12.77;;;6.30;;
67053;SDS011;53960;51.826;5.850;2023-04-10T02:04:06;12.87;;;5.80;;
67053;SDS011;53960;51.826;5.850;2023-04-10T02:12:08;13.45;;;5.97;;
67053;SDS011;53960;51.826;5.850;2023-04-10T02:14:35;13.40;;;6.22;;
67053;SDS011;53960;51.826;5.850;2023-04-10T02:17:03;15.48;;;6.38;;
67053;SDS011;53960;51.826;5.850;2023-04-10T02:19:30;16.20;;;6.60;;
67053;SDS011;53960;51.826;5.850;2023-04-10T02:21:57;12.65;;;6.35;;
67053;SDS011;53960;51.826;5.850;2023-04-10T02:24:23;12.25;;;6.20;;
67053;SDS011;53960;51.826;5.850;2023-04-10T02:26:50;11.55;;;5.85;;
67053;SDS011;53960;51.826;5.850;2023-04-10T02:29:16;12.57;;;6.20;;
67053;SDS011;53960;51.826;5.850;2023-04-10T02:31:42;13.48;;;5.90;;
67053;SDS011;53960;51.826;5.850;2023-04-10T02:34:09;12.63;;;5.85;;
67053;SDS011;53960;51.826;5.850;2023-04-10T02:36:37;11.37;;;5.57;;
67053;SDS011;53960;51.826;5.850;2023-04-10T02:39:04;12.13;;;6.22;;
67053;SDS011;53960;51.826;5.850;2023-04-10T02:41:30;11.68;;;5.55;;
67053;SDS011;53960;51.826;5.850;2023-04-10T02:43:55;12.67;;;6.10;;
67053;SDS011;53960;51.826;5.850;2023-04-10T02:46:21;12.90;;;6.00;;
67053;SDS011;53960;51.826;5.850;2023-04-10T02:48:46;12.35;;;6.00;;
67053;SDS011;53960;51.826;5.850;2023-04-10T02:51:12;12.43;;;5.43;;
67053;SDS011;53960;51.826;5.850;2023-04-10T02:53:38;12.05;;;5.55;;
67053;SDS011;53960;51.826;5.850;2023-04-10T02:56:03;12.47;;;5.90;;
67053;SDS011;53960;51.826;5.850;2023-04-10T02:58:30;12.20;;;5.72;;
67053;SDS011;53960;51.826;5.850;2023-04-10T03:00:56;12.83;;;6.17;;
67053;SDS011;53960;51.826;5.850;2023-04-10T03:03:22;13.75;;;6.97;;
67053;SDS011;53960;51.826;5.850;2023-04-10T03:05:47;11.87;;;6.37;;
67053;SDS011;53960;51.826;5.850;2023-04-10T03:08:13;12.48;;;6.35;;
67053;SDS011;53960;51.826;5.850;2023-04-10T03:10:39;12.10;;;5.60;;
67053;SDS011;53960;51.826;5.850;2023-04-10T03:13:07;13.00;;;6.35;;
67053;SDS011;53960;51.826;5.850;2023-04-10T03:15:32;13.17;;;6.43;;
67053;SDS011;53960;51.826;5.850;2023-04-10T03:17:58;11.83;;;6.00;;
67053;SDS011;53960;51.826;5.850;2023-04-10T03:20:23;11.73;;;5.63;;
67053;SDS011;53960;51.826;5.850;2023-04-10T03:22:48;11.30;;;5.43;;
67053;SDS011;53960;51.826;5.850;2023-04-10T03:25:14;12.23;;;6.00;;
67053;SDS011;53960;51.826;5.850;2023-04-10T03:27:40;12.17;;;6.10;;
67053;SDS011;53960;51.826;5.850;2023-04-10T03:30:06;12.63;;;5.80;;
67053;SDS011;53960;51.826;5.850;2023-04-10T03:32:32;12.15;;;6.57;;
67053;SDS011;53960;51.826;5.850;2023-04-10T03:34:57;11.40;;;5.77;;
67053;SDS011;53960;51.826;5.850;2023-04-10T03:37:23;14.50;;;6.70;;
67053;SDS011;53960;51.826;5.850;2023-04-10T03:39:48;13.40;;;6.37;;
67053;SDS011;53960;51.826;5.850;2023-04-10T03:42:13;12.57;;;6.37;;
67053;SDS011;53960;51.826;5.850;2023-04-10T03:44:39;13.00;;;6.10;;
67053;SDS011;53960;51.826;5.850;2023-04-10T03:47:04;11.68;;;5.82;;
67053;SDS011;53960;51.826;5.850;2023-04-10T03:49:30;11.13;;;5.87;;
67053;SDS011;53960;51.826;5.850;2023-04-10T03:51:55;12.20;;;5.83;;
67053;SDS011;53960;51.826;5.850;2023-04-10T03:54:20;11.50;;;6.10;;
67053;SDS011;53960;51.826;5.850;2023-04-10T03:56:45;13.83;;;6.13;;
67053;SDS011;53960;51.826;5.850;2023-04-10T03:59:11;12.63;;;6.53;;
67053;SDS011;53960;51.826;5.850;2023-04-10T04:01:36;12.07;;;6.13;;
67053;SDS011;53960;51.826;5.850;2023-04-10T04:04:02;11.50;;;5.80;;
67053;SDS011;53960;51.826;5.850;2023-04-10T04:06:27;12.43;;;6.33;;
67053;SDS011;53960;51.826;5.850;2023-04-10T04:08:52;14.13;;;5.47;;
67053;SDS011;53960;51.826;5.850;2023-04-10T04:11:17;12.30;;;5.43;;
67053;SDS011;53960;51.826;5.850;2023-04-10T04:13:43;12.97;;;6.27;;
67053;SDS011;53960;51.826;5.850;2023-04-10T04:16:08;11.10;;;5.30;;
67053;SDS011;53960;51.826;5.850;2023-04-10T04:18:34;12.55;;;6.35;;
67053;SDS011;53960;51.826;5.850;2023-04-10T04:20:59;11.13;;;5.50;;
67053;SDS011;53960;51.826;5.850;2023-04-10T04:23:25;12.73;;;6.28;;
67053;SDS011;53960;51.826;5.850;2023-04-10T04:25:50;12.30;;;6.07;;
67053;SDS011;53960;51.826;5.850;2023-04-10T04:28:16;13.13;;;6.17;;
67053;SDS011;53960;51.826;5.850;2023-04-10T04:30:42;12.65;;;5.72;;
67053;SDS011;53960;51.826;5.850;2023-04-10T04:33:07;12.40;;;6.23;;
67053;SDS011;53960;51.826;5.850;2023-04-10T04:35:33;13.23;;;6.53;;
67053;SDS011;53960;51.826;5.850;2023-04-10T04:37:58;13.03;;;6.10;;
67053;SDS011;53960;51.826;5.850;2023-04-10T04:40:23;13.63;;;6.57;;
67053;SDS011;53960;51.826;5.850;2023-04-10T04:42:49;13.13;;;6.85;;
67053;SDS011;53960;51.826;5.850;2023-04-10T04:45:14;14.13;;;6.80;;
67053;SDS011;53960;51.826;5.850;2023-04-10T04:47:40;13.13;;;6.40;;
67053;SDS011;53960;51.826;5.850;2023-04-10T04:50:05;14.33;;;6.70;;
67053;SDS011;53960;51.826;5.850;2023-04-10T04:52:31;13.15;;;6.50;;
67053;SDS011;53960;51.826;5.850;2023-04-10T04:54:59;13.50;;;6.22;;
67053;SDS011;53960;51.826;5.850;2023-04-10T04:57:24;13.37;;;6.77;;
67053;SDS011;53960;51.826;5.850;2023-04-10T04:59:49;14.93;;;6.97;;
67053;SDS011;53960;51.826;5.850;2023-04-10T05:02:15;12.47;;;5.53;;
67053;SDS011;53960;51.826;5.850;2023-04-10T05:04:40;12.80;;;6.30;;
67053;SDS011;53960;51.826;5.850;2023-04-10T05:07:06;12.70;;;6.23;;
67053;SDS011;53960;51.826;5.850;2023-04-10T05:09:31;13.37;;;6.57;;
67053;SDS011;53960;51.826;5.850;2023-04-10T05:11:56;14.23;;;6.50;;
67053;SDS011;53960;51.826;5.850;2023-04-10T05:14:22;13.10;;;6.30;;
67053;SDS011;53960;51.826;5.850;2023-04-10T05:16:48;13.27;;;5.97;;
67053;SDS011;53960;51.826;5.850;2023-04-10T05:19:13;11.90;;;6.37;;
67053;SDS011;53960;51.826;5.850;2023-04-10T05:21:38;14.37;;;6.90;;
67053;SDS011;53960;51.826;5.850;2023-04-10T05:24:03;12.83;;;6.13;;
67053;SDS011;53960;51.826;5.850;2023-04-10T05:26:29;12.80;;;6.07;;
67053;SDS011;53960;51.826;5.850;2023-04-10T05:28:54;13.83;;;5.87;;
67053;SDS011;53960;51.826;5.850;2023-04-10T05:31:19;13.50;;;6.13;;
67053;SDS011;53960;51.826;5.850;2023-04-10T05:33:45;12.63;;;5.93;;
67053;SDS011;53960;51.826;5.850;2023-04-10T05:36:11;12.63;;;6.10;;
67053;SDS011;53960;51.826;5.850;2023-04-10T05:38:36;12.35;;;6.05;;
67053;SDS011;53960;51.826;5.850;2023-04-10T05:41:02;12.23;;;6.10;;
67053;SDS011;53960;51.826;5.850;2023-04-10T05:43:27;12.60;;;6.57;;
67053;SDS011;53960;51.826;5.850;2023-04-10T05:45:52;10.97;;;5.53;;
67053;SDS011;53960;51.826;5.850;2023-04-10T05:48:18;14.20;;;6.60;;
67053;SDS011;53960;51.826;5.850;2023-04-10T05:50:43;13.97;;;7.03;;
67053;SDS011;53960;51.826;5.850;2023-04-10T05:53:11;12.95;;;6.03;;
67053;SDS011;53960;51.826;5.850;2023-04-10T05:55:37;13.53;;;6.60;;
67053;SDS011;53960;51.826;5.850;2023-04-10T05:58:03;12.38;;;5.75;;
67053;SDS011;53960;51.826;5.850;2023-04-10T06:00:28;11.83;;;6.00;;
67053;SDS011;53960;51.826;5.850;2023-04-10T06:02:54;13.73;;;6.80;;
67053;SDS011;53960;51.826;5.850;2023-04-10T06:05:19;13.40;;;6.33;;
67053;SDS011;53960;51.826;5.850;2023-04-10T06:07:45;12.73;;;6.30;;
67053;SDS011;53960;51.826;5.850;2023-04-10T06:10:10;13.60;;;5.60;;
67053;SDS011;53960;51.826;5.850;2023-04-10T06:12:36;13.40;;;6.80;;
67053;SDS011;53960;51.826;5.850;2023-04-10T06:15:01;12.73;;;6.20;;
67053;SDS011;53960;51.826;5.850;2023-04-10T06:17:26;12.90;;;5.90;;
67053;SDS011;53960;51.826;5.850;2023-04-10T06:19:52;12.73;;;6.07;;
67053;SDS011;53960;51.826;5.850;2023-04-10T06:22:17;13.10;;;5.83;;
67053;SDS011;53960;51.826;5.850;2023-04-10T06:24:43;12.17;;;5.73;;
67053;SDS011;53960;51.826;5.850;2023-04-10T06:27:08;12.33;;;6.60;;
67053;SDS011;53960;51.826;5.850;2023-04-10T06:29:33;11.23;;;5.53;;
67053;SDS011;53960;51.826;5.850;2023-04-10T06:31:59;11.60;;;5.60;;
67053;SDS011;53960;51.826;5.850;2023-04-10T06:34:24;13.87;;;6.70;;
67053;SDS011;53960;51.826;5.850;2023-04-10T06:36:50;12.95;;;7.00;;
67053;SDS011;53960;51.826;5.850;2023-04-10T06:39:15;13.47;;;6.07;;
67053;SDS011;53960;51.826;5.850;2023-04-10T06:41:41;14.07;;;6.57;;
67053;SDS011;53960;51.826;5.850;2023-04-10T06:44:06;13.23;;;6.93;;
67053;SDS011;53960;51.826;5.850;2023-04-10T06:46:32;11.83;;;6.23;;
67053;SDS011;53960;51.826;5.850;2023-04-10T06:48:57;12.50;;;6.20;;
67053;SDS011;53960;51.826;5.850;2023-04-10T06:51:22;12.77;;;6.67;;
67053;SDS011;53960;51.826;5.850;2023-04-10T06:53:48;13.00;;;6.73;;
67053;SDS011;53960;51.826;5.850;2023-04-10T06:56:13;13.37;;;6.73;;
67053;SDS011;53960;51.826;5.850;2023-04-10T06:58:38;13.00;;;6.10;;
67053;SDS011;53960;51.826;5.850;2023-04-10T07:01:05;15.23;;;6.95;;
67053;SDS011;53960;51.826;5.850;2023-04-10T07:03:30;12.85;;;6.88;;
67053;SDS011;53960;51.826;5.850;2023-04-10T07:05:56;13.17;;;6.37;;
67053;SDS011;53960;51.826;5.850;2023-04-10T07:08:22;15.27;;;7.05;;
67053;SDS011;53960;51.826;5.850;2023-04-10T07:10:47;15.93;;;7.77;;
67053;SDS011;53960;51.826;5.850;2023-04-10T07:13:13;14.27;;;7.20;;
67053;SDS011;53960;51.826;5.850;2023-04-10T07:15:38;12.73;;;6.63;;
67053;SDS011;53960;51.826;5.850;2023-04-10T07:18:04;13.37;;;6.27;;
67053;SDS011;53960;51.826;5.850;2023-04-10T07:20:30;13.85;;;6.97;;
67053;SDS011;53960;51.826;5.850;2023-04-10T07:22:56;12.50;;;6.27;;
67053;SDS011;53960;51.826;5.850;2023-04-10T07:25:21;13.20;;;7.22;;
67053;SDS011;53960;51.826;5.850;2023-04-10T07:27:47;12.80;;;6.53;;
67053;SDS011;53960;51.826;5.850;2023-04-10T07:30:12;13.80;;;6.40;;
67053;SDS011;53960;51.826;5.850;2023-04-10T07:32:38;11.73;;;6.10;;
67053;SDS011;53960;51.826;5.850;2023-04-10T07:35:04;13.18;;;6.55;;
67053;SDS011;53960;51.826;5.850;2023-04-10T07:37:30;12.43;;;6.07;;
67053;SDS011;53960;51.826;5.850;2023-04-10T07:39:55;13.70;;;6.57;;
67053;SDS011;53960;51.826;5.850;2023-04-10T07:42:21;13.40;;;6.75;;
67053;SDS011;53960;51.826;5.850;2023-04-10T07:44:47;13.13;;;6.57;;
67053;SDS011;53960;51.826;5.850;2023-04-10T07:47:12;13.53;;;6.00;;
67053;SDS011;53960;51.826;5.850;2023-04-10T07:49:38;13.23;;;6.57;;
67053;SDS011;53960;51.826;5.850;2023-04-10T07:52:03;12.73;;;6.07;;
67053;SDS011;53960;51.826;5.850;2023-04-10T07:54:31;12.20;;;6.20;;
67053;SDS011;53960;51.826;5.850;2023-04-10T07:57:00;12.23;;;6.07;;
67053;SDS011;53960;51.826;5.850;2023-04-10T07:59:26;13.37;;;6.40;;
67053;SDS011;53960;51.826;5.850;2023-04-10T08:01:52;12.80;;;6.22;;
67053;SDS011;53960;51.826;5.850;2023-04-10T08:04:17;14.60;;;6.73;;
67053;SDS011;53960;51.826;5.850;2023-04-10T08:06:43;12.50;;;6.37;;
67053;SDS011;53960;51.826;5.850;2023-04-10T08:09:08;12.10;;;6.00;;
67053;SDS011;53960;51.826;5.850;2023-04-10T08:11:34;13.87;;;6.33;;
67053;SDS011;53960;51.826;5.850;2023-04-10T08:14:01;13.37;;;6.67;;
67053;SDS011;53960;51.826;5.850;2023-04-10T08:16:28;15.13;;;6.80;;
67053;SDS011;53960;51.826;5.850;2023-04-10T08:18:54;13.23;;;6.85;;
67053;SDS011;53960;51.826;5.850;2023-04-10T08:21:21;14.00;;;6.57;;
67053;SDS011;53960;51.826;5.850;2023-04-10T08:23:49;11.45;;;5.97;;
67053;SDS011;53960;51.826;5.850;2023-04-10T08:26:15;13.13;;;6.17;;
67053;SDS011;53960;51.826;5.850;2023-04-10T08:28:40;12.73;;;6.47;;
67053;SDS011;53960;51.826;5.850;2023-04-10T08:31:10;12.23;;;5.70;;
67053;SDS011;53960;51.826;5.850;2023-04-10T08:33:35;12.33;;;5.57;;
67053;SDS011;53960;51.826;5.850;2023-04-10T08:36:01;12.83;;;6.53;;
67053;SDS011;53960;51.826;5.850;2023-04-10T08:38:26;11.43;;;5.80;;
67053;SDS011;53960;51.826;5.850;2023-04-10T08:40:52;12.50;;;6.03;;
67053;SDS011;53960;51.826;5.850;2023-04-10T08:43:17;13.75;;;6.75;;
67053;SDS011;53960;51.826;5.850;2023-04-10T08:45:43;11.73;;;6.00;;
67053;SDS011;53960;51.826;5.850;2023-04-10T08:48:10;13.55;;;6.10;;
67053;SDS011;53960;51.826;5.850;2023-04-10T08:50:38;13.30;;;6.03;;
67053;SDS011;53960;51.826;5.850;2023-04-10T08:53:10;12.43;;;6.22;;
67053;SDS011;53960;51.826;5.850;2023-04-10T08:55:37;12.27;;;6.20;;
67053;SDS011;53960;51.826;5.850;2023-04-10T08:58:04;11.55;;;5.88;;
67053;SDS011;53960;51.826;5.850;2023-04-10T09:00:32;12.93;;;6.15;;
67053;SDS011;53960;51.826;5.850;2023-04-10T09:02:58;11.17;;;5.43;;
67053;SDS011;53960;51.826;5.850;2023-04-10T09:05:25;13.32;;;5.72;;
67053;SDS011;53960;51.826;5.850;2023-04-10T09:07:52;11.77;;;5.90;;
67053;SDS011;53960;51.826;5.850;2023-04-10T09:10:17;12.93;;;5.90;;
67053;SDS011;53960;51.826;5.850;2023-04-10T09:12:43;12.03;;;5.83;;
67053;SDS011;53960;51.826;5.850;2023-04-10T09:15:10;11.98;;;6.22;;
67053;SDS011;53960;51.826;5.850;2023-04-10T09:17:36;11.73;;;5.77;;
67053;SDS011;53960;51.826;5.850;2023-04-10T09:20:01;11.57;;;5.93;;
67053;SDS011;53960;51.826;5.850;2023-04-10T09:22:33;11.93;;;5.70;;
67053;SDS011;53960;51.826;5.850;2023-04-10T09:25:00;11.63;;;6.00;;
67053;SDS011;53960;51.826;5.850;2023-04-10T09:27:33;11.00;;;5.60;;
67053;SDS011;53960;51.826;5.850;2023-04-10T09:30:00;10.80;;;5.23;;
67053;SDS011;53960;51.826;5.850;2023-04-10T09:32:34;9.60;;;4.68;;
67053;SDS011;53960;51.826;5.850;2023-04-10T09:35:08;12.02;;;5.60;;
67053;SDS011;53960;51.826;5.850;2023-04-10T09:37:34;11.30;;;5.65;;
67053;SDS011;53960;51.826;5.850;2023-04-10T09:40:00;10.38;;;5.00;;
67053;SDS011;53960;51.826;5.850;2023-04-10T09:42:36;12.07;;;5.63;;
67053;SDS011;53960;51.826;5.850;2023-04-10T09:45:02;12.85;;;5.38;;
67053;SDS011;53960;51.826;5.850;2023-04-10T09:47:28;11.18;;;5.47;;
67053;SDS011;53960;51.826;5.850;2023-04-10T09:49:56;10.63;;;4.80;;
67053;SDS011;53960;51.826;5.850;2023-04-10T09:52:25;10.95;;;5.75;;
67053;SDS011;53960;51.826;5.850;2023-04-10T09:54:56;9.97;;;4.80;;
67053;SDS011;53960;51.826;5.850;2023-04-10T09:57:23;11.00;;;5.18;;
67053;SDS011;53960;51.826;5.850;2023-04-10T09:59:50;12.38;;;5.72;;
67053;SDS011;53960;51.826;5.850;2023-04-10T10:02:21;11.23;;;4.57;;
67053;SDS011;53960;51.826;5.850;2023-04-10T10:04:48;11.07;;;5.38;;
67053;SDS011;53960;51.826;5.850;2023-04-10T10:07:14;10.63;;;4.70;;
67053;SDS011;53960;51.826;5.850;2023-04-10T10:09:45;10.77;;;4.82;;
67053;SDS011;53960;51.826;5.850;2023-04-10T10:12:11;10.50;;;5.00;;
67053;SDS011;53960;51.826;5.850;2023-04-10T10:15:00;9.65;;;4.88;;
67053;SDS011;53960;51.826;5.850;2023-04-10T10:17:34;11.48;;;5.05;;
67053;SDS011;53960;51.826;5.850;2023-04-10T10:20:04;11.00;;;5.07;;
67053;SDS011;53960;51.826;5.850;2023-04-10T10:22:33;10.52;;;4.60;;
67053;SDS011;53960;51.826;5.850;2023-04-10T10:24:59;10.68;;;5.15;;
67053;SDS011;53960;51.826;5.850;2023-04-10T10:27:26;9.25;;;4.45;;
67053;SDS011;53960;51.826;5.850;2023-04-10T10:29:53;10.10;;;4.45;;
67053;SDS011;53960;51.826;5.850;2023-04-10T10:32:19;9.60;;;4.53;;
67053;SDS011;53960;51.826;5.850;2023-04-10T10:34:45;10.60;;;4.65;;
67053;SDS011;53960;51.826;5.850;2023-04-10T10:37:11;10.48;;;4.68;;
67053;SDS011;53960;51.826;5.850;2023-04-10T10:39:58;9.82;;;4.60;;
67053;SDS011;53960;51.826;5.850;2023-04-10T10:42:35;9.40;;;4.43;;
67053;SDS011;53960;51.826;5.850;2023-04-10T10:45:18;11.40;;;5.10;;
67053;SDS011;53960;51.826;5.850;2023-04-10T10:47:51;10.93;;;4.97;;
67053;SDS011;53960;51.826;5.850;2023-04-10T10:50:18;10.15;;;4.68;;
67053;SDS011;53960;51.826;5.850;2023-04-10T10:57:49;10.20;;;5.17;;
67053;SDS011;53960;51.826;5.850;2023-04-10T11:00:19;11.20;;;5.40;;
67053;SDS011;53960;51.826;5.850;2023-04-10T11:03:10;10.65;;;5.03;;
67053;SDS011;53960;51.826;5.850;2023-04-10T11:13:38;10.18;;;4.60;;
67053;SDS011;53960;51.826;5.850;2023-04-10T11:16:06;9.65;;;4.60;;
67053;SDS011;53960;51.826;5.850;2023-04-10T11:21:09;10.38;;;5.03;;
67053;SDS011;53960;51.826;5.850;2023-04-10T11:23:35;10.33;;;4.37;;
67053;SDS011;53960;51.826;5.850;2023-04-10T11:26:01;10.25;;;4.20;;
67053;SDS011;53960;51.826;5.850;2023-04-10T11:28:36;11.90;;;4.80;;
67053;SDS011;53960;51.826;5.850;2023-04-10T11:31:21;10.80;;;4.60;;
67053;SDS011;53960;51.826;5.850;2023-04-10T11:33:49;13.65;;;4.68;;
67053;SDS011;53960;51.826;5.850;2023-04-10T11:36:24;9.00;;;4.53;;
67053;SDS011;53960;51.826;5.850;2023-04-10T11:38:54;10.25;;;5.22;;
67053;SDS011;53960;51.826;5.850;2023-04-10T11:41:33;10.45;;;5.03;;
67053;SDS011;53960;51.826;5.850;2023-04-10T11:44:01;9.33;;;4.50;;
67053;SDS011;53960;51.826;5.850;2023-04-10T11:46:27;10.63;;;4.60;;
67053;SDS011;53960;51.826;5.850;2023-04-10T11:49:03;10.32;;;4.57;;
67053;SDS011;53960;51.826;5.850;2023-04-10T11:51:29;9.93;;;4.70;;
67053;SDS011;53960;51.826;5.850;2023-04-10T11:56:33;8.13;;;4.00;;
67053;SDS011;53960;51.826;5.850;2023-04-10T11:58:59;8.35;;;3.80;;
67053;SDS011;53960;51.826;5.850;2023-04-10T12:01:26;8.10;;;3.50;;
67053;SDS011;53960;51.826;5.850;2023-04-10T12:03:52;8.67;;;4.07;;
67053;SDS011;53960;51.826;5.850;2023-04-10T12:06:18;8.95;;;3.85;;
67053;SDS011;53960;51.826;5.850;2023-04-10T12:08:46;7.93;;;4.07;;
67053;SDS011;53960;51.826;5.850;2023-04-10T12:11:22;8.88;;;3.97;;
67053;SDS011;53960;51.826;5.850;2023-04-10T12:13:52;10.13;;;3.95;;
67053;SDS011;53960;51.826;5.850;2023-04-10T12:16:19;8.07;;;3.35;;
67053;SDS011;53960;51.826;5.850;2023-04-10T12:18:45;8.40;;;3.35;;
67053;SDS011;53960;51.826;5.850;2023-04-10T12:21:10;8.27;;;3.53;;
67053;SDS011;53960;51.826;5.850;2023-04-10T12:23:37;8.33;;;3.30;;
67053;SDS011;53960;51.826;5.850;2023-04-10T12:26:07;8.70;;;3.30;;
67053;SDS011;53960;51.826;5.850;2023-04-10T12:28:34;10.75;;;3.30;;
67053;SDS011;53960;51.826;5.850;2023-04-10T12:31:00;8.23;;;3.40;;
67053;SDS011;53960;51.826;5.850;2023-04-10T12:33:27;7.93;;;3.33;;
67053;SDS011;53960;51.826;5.850;2023-04-10T12:35:52;9.37;;;3.40;;
67053;SDS011;53960;51.826;5.850;2023-04-10T12:41:23;9.52;;;3.35;;
67053;SDS011;53960;51.826;5.850;2023-04-10T12:43:50;8.32;;;3.92;;
67053;SDS011;53960;51.826;5.850;2023-04-10T12:46:26;7.97;;;3.38;;
67053;SDS011;53960;51.826;5.850;2023-04-10T12:48:53;9.05;;;3.45;;
67053;SDS011;53960;51.826;5.850;2023-04-10T12:51:39;8.13;;;3.30;;
67053;SDS011;53960;51.826;5.850;2023-04-10T12:54:08;9.48;;;3.95;;
67053;SDS011;53960;51.826;5.850;2023-04-10T12:56:43;8.57;;;3.50;;
67053;SDS011;53960;51.826;5.850;2023-04-10T12:59:11;7.97;;;3.72;;
67053;SDS011;53960;51.826;5.850;2023-04-10T13:01:37;7.63;;;3.40;;
67053;SDS011;53960;51.826;5.850;2023-04-10T13:04:03;8.00;;;2.90;;
67053;SDS011;53960;51.826;5.850;2023-04-10T13:06:28;9.10;;;3.53;;
67053;SDS011;53960;51.826;5.850;2023-04-10T13:08:53;9.17;;;3.70;;
67053;SDS011;53960;51.826;5.850;2023-04-10T13:11:19;8.85;;;3.55;;
67053;SDS011;53960;51.826;5.850;2023-04-10T13:13:46;8.55;;;3.33;;
67053;SDS011;53960;51.826;5.850;2023-04-10T13:16:12;8.60;;;3.00;;
67053;SDS011;53960;51.826;5.850;2023-04-10T13:18:37;8.45;;;3.28;;
67053;SDS011;53960;51.826;5.850;2023-04-10T13:21:03;7.83;;;3.33;;
67053;SDS011;53960;51.826;5.850;2023-04-10T13:23:29;7.97;;;3.40;;
67053;SDS011;53960;51.826;5.850;2023-04-10T13:25:54;8.02;;;3.42;;
67053;SDS011;53960;51.826;5.850;2023-04-10T13:28:20;8.52;;;3.65;;
67053;SDS011;53960;51.826;5.850;2023-04-10T13:30:46;7.80;;;3.30;;
67053;SDS011;53960;51.826;5.850;2023-04-10T13:33:12;8.33;;;3.30;;
67053;SDS011;53960;51.826;5.850;2023-04-10T13:35:37;7.55;;;3.33;;
67053;SDS011;53960;51.826;5.850;2023-04-10T13:38:04;8.02;;;3.75;;
67053;SDS011;53960;51.826;5.850;2023-04-10T13:40:29;7.83;;;3.63;;
67053;SDS011;53960;51.826;5.850;2023-04-10T13:42:55;8.13;;;3.83;;
67053;SDS011;53960;51.826;5.850;2023-04-10T13:45:20;9.27;;;3.30;;
67053;SDS011;53960;51.826;5.850;2023-04-10T13:47:45;7.57;;;3.30;;
67053;SDS011;53960;51.826;5.850;2023-04-10T13:50:11;8.13;;;3.33;;
67053;SDS011;53960;51.826;5.850;2023-04-10T13:52:36;9.30;;;3.23;;
67053;SDS011;53960;51.826;5.850;2023-04-10T13:55:02;7.43;;;3.30;;
67053;SDS011;53960;51.826;5.850;2023-04-10T13:57:27;7.90;;;3.70;;
67053;SDS011;53960;51.826;5.850;2023-04-10T13:59:52;9.77;;;3.40;;
67053;SDS011;53960;51.826;5.850;2023-04-10T14:02:18;8.57;;;3.33;;
67053;SDS011;53960;51.826;5.850;2023-04-10T14:04:43;7.40;;;3.33;;
67053;SDS011;53960;51.826;5.850;2023-04-10T14:07:10;8.60;;;2.97;;
67053;SDS011;53960;51.826;5.850;2023-04-10T14:09:35;7.73;;;3.33;;
67053;SDS011;53960;51.826;5.850;2023-04-10T14:12:01;7.80;;;3.15;;
67053;SDS011;53960;51.826;5.850;2023-04-10T14:14:27;7.83;;;3.10;;
67053;SDS011;53960;51.826;5.850;2023-04-10T14:16:52;10.07;;;3.30;;
67053;SDS011;53960;51.826;5.850;2023-04-10T14:19:17;9.15;;;3.20;;
67053;SDS011;53960;51.826;5.850;2023-04-10T14:21:43;8.13;;;3.47;;
67053;SDS011;53960;51.826;5.850;2023-04-10T14:24:08;7.70;;;3.40;;
67053;SDS011;53960;51.826;5.850;2023-04-10T14:26:34;8.50;;;3.30;;
67053;SDS011;53960;51.826;5.850;2023-04-10T14:29:00;8.80;;;3.37;;
67053;SDS011;53960;51.826;5.850;2023-04-10T14:31:25;10.07;;;4.30;;
67053;SDS011;53960;51.826;5.850;2023-04-10T14:33:50;7.80;;;3.20;;
67053;SDS011;53960;51.826;5.850;2023-04-10T14:36:16;8.87;;;3.27;;
67053;SDS011;53960;51.826;5.850;2023-04-10T14:38:41;7.73;;;3.00;;
67053;SDS011;53960;51.826;5.850;2023-04-10T14:41:06;8.63;;;3.28;;
67053;SDS011;53960;51.826;5.850;2023-04-10T14:43:32;8.43;;;3.40;;
67053;SDS011;53960;51.826;5.850;2023-04-10T14:45:57;7.03;;;2.93;;
67053;SDS011;53960;51.826;5.850;2023-04-10T14:48:22;8.37;;;3.67;;
67053;SDS011;53960;51.826;5.850;2023-04-10T14:50:48;7.93;;;3.43;;
67053;SDS011;53960;51.826;5.850;2023-04-10T14:53:13;7.57;;;3.20;;
67053;SDS011;53960;51.826;5.850;2023-04-10T14:55:39;7.35;;;2.88;;
67053;SDS011;53960;51.826;5.850;2023-04-10T14:58:05;8.40;;;2.97;;
67053;SDS011;53960;51.826;5.850;2023-04-10T15:00:31;8.77;;;3.33;;
67053;SDS011;53960;51.826;5.850;2023-04-10T15:02:57;9.18;;;3.55;;
67053;SDS011;53960;51.826;5.850;2023-04-10T15:05:22;8.10;;;3.60;;
67053;SDS011;53960;51.826;5.850;2023-04-10T15:07:49;7.45;;;3.15;;
67053;SDS011;53960;51.826;5.850;2023-04-10T15:10:14;7.10;;;3.00;;
67053;SDS011;53960;51.826;5.850;2023-04-10T15:12:40;9.47;;;3.40;;
67053;SDS011;53960;51.826;5.850;2023-04-10T15:15:06;8.13;;;3.38;;
67053;SDS011;53960;51.826;5.850;2023-04-10T15:17:32;8.50;;;3.08;;